Time;durP1;ratioP1;P1;durP2;ratioP2;P2;SDS_P1;SDS_P2;PMS_P1;PMS_P2;Temp;Humidity;BMP_temperature;BMP_pressure;BME280_temperature;BME280_humidity;BME280_pressure;Samples;Min_cycle;Max_cycle;Signal;HPM_P1;HPM_P2
2021/12/08 00:00:44;;;;;;;5.43;2.85;;;6.00;99.90;;;;;;5008275;28;20495;-81
2021/12/08 00:03:12;;;;;;;8.25;3.25;;;6.00;99.90;;;;;;5006285;28;20072;-79
2021/12/08 00:05:40;;;;;;;3.83;2.97;;;6.00;99.90;;;;;;5013317;28;20033;-79
2021/12/08 00:08:09;;;;;;;5.15;2.90;;;6.00;99.90;;;;;;4997237;28;20057;-79
2021/12/08 00:13:07;;;;;;;5.30;2.90;;;6.00;99.90;;;;;;5028469;28;20524;-79
2021/12/08 00:15:39;;;;;;;6.97;3.22;;;6.00;99.90;;;;;;5027155;28;20136;-83
2021/12/08 00:18:07;;;;;;;5.03;3.00;;;6.00;99.90;;;;;;5011120;28;20022;-79
2021/12/08 00:20:34;;;;;;;5.00;3.10;;;6.00;99.90;;;;;;5011711;28;20029;-79
2021/12/08 00:23:02;;;;;;;5.15;2.55;;;6.00;99.90;;;;;;4996631;28;20049;-79
2021/12/08 00:25:29;;;;;;;4.80;2.50;;;6.00;99.90;;;;;;5008421;28;20040;-79
2021/12/08 00:27:55;;;;;;;9.60;5.45;;;6.00;99.90;;;;;;5011812;28;20031;-78
2021/12/08 00:30:21;;;;;;;12.90;8.80;;;6.00;99.90;;;;;;4995139;28;20135;-79
2021/12/08 00:32:48;;;;;;;15.50;9.45;;;6.00;99.90;;;;;;5013653;28;20025;-78
2021/12/08 00:35:16;;;;;;;9.32;5.38;;;6.00;99.90;;;;;;5029732;28;20346;-78
2021/12/08 00:37:41;;;;;;;7.10;3.95;;;6.00;99.90;;;;;;5013178;28;20026;-79
2021/12/08 00:40:09;;;;;;;5.10;2.92;;;6.00;99.90;;;;;;5013061;28;20563;-79
2021/12/08 00:42:36;;;;;;;5.30;3.03;;;6.00;99.90;;;;;;5013099;28;20018;-80
2021/12/08 00:45:03;;;;;;;6.82;3.72;;;6.00;99.90;;;;;;5011841;28;20128;-78
2021/12/08 00:47:29;;;;;;;7.38;3.97;;;6.00;99.90;;;;;;5012735;28;20017;-78
2021/12/08 00:49:55;;;;;;;12.27;5.25;;;6.10;99.90;;;;;;5006779;28;20026;-78
2021/12/08 00:52:20;;;;;;;4.85;3.10;;;6.00;99.90;;;;;;4992977;28;20461;-79
2021/12/08 00:54:46;;;;;;;5.22;2.70;;;6.00;99.90;;;;;;5013954;28;20076;-78
2021/12/08 00:57:12;;;;;;;7.65;3.10;;;6.00;99.90;;;;;;5015686;28;20035;-78
2021/12/08 00:59:38;;;;;;;7.93;3.03;;;6.00;99.90;;;;;;5015892;28;20401;-79
2021/12/08 01:02:05;;;;;;;4.07;2.83;;;6.10;99.90;;;;;;5016889;28;20492;-79
2021/12/08 01:04:32;;;;;;;6.05;3.20;;;6.00;99.90;;;;;;5016171;28;20022;-79
2021/12/08 01:06:57;;;;;;;6.43;3.08;;;6.10;99.90;;;;;;5014383;28;20124;-79
2021/12/08 01:09:23;;;;;;;4.53;3.15;;;6.10;99.90;;;;;;5016679;28;20061;-78
2021/12/08 01:11:49;;;;;;;6.57;3.10;;;6.10;99.90;;;;;;5017003;28;20363;-79
2021/12/08 01:14:15;;;;;;;5.13;2.95;;;6.10;99.90;;;;;;5013286;28;20022;-78
2021/12/08 01:16:41;;;;;;;7.22;2.88;;;6.10;99.90;;;;;;5015387;28;20057;-78
2021/12/08 01:19:07;;;;;;;5.40;3.33;;;6.10;99.90;;;;;;5015480;28;20025;-79
2021/12/08 01:21:33;;;;;;;5.25;2.97;;;6.10;99.90;;;;;;5015909;28;20025;-79
2021/12/08 01:23:59;;;;;;;3.90;2.58;;;6.10;99.90;;;;;;5015854;28;20029;-79
2021/12/08 01:26:27;;;;;;;4.35;2.83;;;6.10;99.90;;;;;;5014548;28;20056;-78
2021/12/08 01:28:56;;;;;;;5.45;2.95;;;6.10;99.90;;;;;;4999420;28;20040;-78
2021/12/08 01:31:24;;;;;;;4.53;3.00;;;6.20;99.90;;;;;;4996777;28;20030;-78
2021/12/08 01:33:50;;;;;;;4.45;2.50;;;6.20;99.90;;;;;;4996416;28;20026;-78
2021/12/08 01:36:16;;;;;;;5.78;2.67;;;6.20;99.90;;;;;;4996292;28;20022;-79
2021/12/08 01:38:42;;;;;;;4.93;2.60;;;6.20;99.90;;;;;;5023587;28;20056;-77
2021/12/08 01:41:08;;;;;;;3.35;2.40;;;6.20;99.90;;;;;;5013567;28;20461;-78
2021/12/08 01:43:43;;;;;;;6.00;2.45;;;6.20;99.90;;;;;;5015829;28;20025;-79
2021/12/08 01:46:12;;;;;;;4.18;2.92;;;6.20;99.90;;;;;;5016056;28;20021;-79
2021/12/08 01:48:42;;;;;;;2.65;2.00;;;6.30;99.90;;;;;;5014872;28;20017;-78
2021/12/08 01:51:10;;;;;;;4.88;2.30;;;6.30;99.90;;;;;;5015229;28;20069;-78
2021/12/08 01:53:38;;;;;;;4.32;2.42;;;6.30;99.90;;;;;;5033088;28;20021;-78
2021/12/08 01:56:04;;;;;;;2.50;2.28;;;6.30;99.90;;;;;;4999108;28;20060;-79
2021/12/08 01:58:30;;;;;;;4.05;2.33;;;6.40;99.90;;;;;;5015278;28;20065;-79
2021/12/08 02:01:00;;;;;;;3.25;2.55;;;6.40;99.90;;;;;;5014929;28;20072;-79
2021/12/08 02:03:26;;;;;;;3.17;2.20;;;6.40;99.90;;;;;;5014102;28;20022;-78
2021/12/08 02:05:54;;;;;;;2.88;2.15;;;6.40;99.90;;;;;;5015510;28;20029;-79
2021/12/08 02:08:20;;;;;;;2.53;2.05;;;6.50;99.90;;;;;;5014918;28;20018;-79
2021/12/08 02:10:47;;;;;;;3.97;2.00;;;6.50;99.90;;;;;;5014336;28;20046;-78
2021/12/08 02:13:13;;;;;;;2.97;2.25;;;6.50;99.90;;;;;;5013503;28;20103;-79
2021/12/08 02:15:39;;;;;;;3.53;2.15;;;6.60;99.90;;;;;;5032916;28;20524;-79
2021/12/08 02:18:09;;;;;;;3.60;2.03;;;6.60;99.90;;;;;;5015477;28;20014;-79
2021/12/08 02:20:35;;;;;;;3.85;2.53;;;6.60;99.90;;;;;;5015228;28;20049;-79
2021/12/08 02:23:01;;;;;;;3.33;2.28;;;6.60;99.90;;;;;;5013884;28;20091;-79
2021/12/08 02:25:27;;;;;;;2.08;1.88;;;6.70;99.90;;;;;;5014541;28;20052;-79
2021/12/08 02:27:55;;;;;;;3.67;2.08;;;6.70;99.90;;;;;;5015728;28;20021;-79
2021/12/08 02:46:45;;;;;;;3.03;2.15;;;6.80;99.90;;;;;;5032692;28;20044;-79
2021/12/08 02:49:16;;;;;;;2.40;1.77;;;6.80;99.90;;;;;;4998759;28;20037;-79
2021/12/08 02:51:42;;;;;;;3.58;2.30;;;6.80;99.90;;;;;;5014149;28;20033;-78
2021/12/08 02:54:09;;;;;;;2.55;2.08;;;6.80;99.90;;;;;;5030118;28;20105;-79
2021/12/08 02:56:40;;;;;;;2.42;2.15;;;6.80;99.90;;;;;;5009301;28;20051;-79
2021/12/08 02:59:07;;;;;;;2.97;1.92;;;6.80;99.90;;;;;;4978831;28;20040;-79
2021/12/08 03:01:35;;;;;;;5.35;2.47;;;6.80;99.90;;;;;;4997611;28;20030;-79
2021/12/08 03:04:01;;;;;;;3.45;2.28;;;6.80;99.90;;;;;;5011739;28;20022;-79
2021/12/08 03:06:26;;;;;;;1.80;1.70;;;6.80;99.90;;;;;;5010355;28;20072;-79
2021/12/08 03:08:52;;;;;;;2.17;1.70;;;6.80;99.90;;;;;;5012909;28;20036;-78
2021/12/08 03:11:19;;;;;;;2.40;1.80;;;6.80;99.90;;;;;;5011105;28;20134;-79
2021/12/08 03:14:02;;;;;;;2.90;2.05;;;6.80;99.90;;;;;;5001593;28;20112;-78
2021/12/08 03:16:27;;;;;;;3.45;2.28;;;6.80;99.90;;;;;;5013210;28;20021;-79
2021/12/08 03:18:53;;;;;;;2.88;2.22;;;6.70;99.90;;;;;;5013768;28;20497;-78
2021/12/08 03:21:26;;;;;;;2.33;2.00;;;6.60;99.90;;;;;;5014050;28;20466;-79
2021/12/08 03:26:32;;;;;;;3.65;2.40;;;6.50;99.90;;;;;;5030269;28;20036;-78
2021/12/08 03:29:14;;;;;;;2.17;1.77;;;6.50;99.90;;;;;;5014305;28;21898;-79
2021/12/08 03:31:43;;;;;;;3.90;1.80;;;6.40;99.90;;;;;;5013795;28;20021;-78
2021/12/08 03:34:08;;;;;;;3.65;2.67;;;6.40;99.90;;;;;;5013480;28;20024;-79
2021/12/08 03:36:34;;;;;;;3.60;2.45;;;6.40;99.90;;;;;;5013469;28;20029;-78
2021/12/08 03:39:01;;;;;;;3.17;1.90;;;6.40;99.90;;;;;;5013596;28;20429;-79
2021/12/08 03:41:31;;;;;;;3.28;1.88;;;6.40;99.90;;;;;;5013141;28;20034;-79
2021/12/08 03:43:57;;;;;;;3.20;1.88;;;6.50;99.90;;;;;;5013881;28;20560;-79
2021/12/08 03:46:26;;;;;;;1.95;1.70;;;6.50;99.90;;;;;;5013637;28;20112;-80
2021/12/08 03:48:57;;;;;;;2.05;1.40;;;6.60;99.90;;;;;;5013139;28;20113;-79
2021/12/08 03:51:23;;;;;;;2.40;1.52;;;6.70;99.90;;;;;;5013531;28;20029;-79
2021/12/08 03:53:49;;;;;;;3.35;2.00;;;6.70;99.90;;;;;;5011828;28;20030;-78
2021/12/08 03:56:15;;;;;;;3.85;1.85;;;6.80;99.90;;;;;;5012487;28;20087;-79
2021/12/08 03:58:42;;;;;;;4.20;1.95;;;6.80;99.90;;;;;;5027868;28;20474;-79
2021/12/08 04:01:07;;;;;;;2.92;1.50;;;6.80;99.90;;;;;;4996591;28;20029;-79
2021/12/08 04:03:35;;;;;;;3.75;1.75;;;6.90;99.90;;;;;;5013411;28;20951;-78
2021/12/08 04:06:07;;;;;;;2.97;1.65;;;6.90;99.90;;;;;;5013027;28;20109;-79
2021/12/08 04:08:43;;;;;;;;;;;6.90;99.90;;;;;;5029029;28;20029;-78
2021/12/08 04:11:11;;;;;;;1.73;1.58;;;6.90;99.90;;;;;;5011981;28;19913;-78
2021/12/08 04:13:45;;;;;;;5.00;2.20;;;7.00;99.90;;;;;;5012735;28;20033;-78
2021/12/08 04:16:14;;;;;;;4.30;1.88;;;7.00;99.90;;;;;;5030513;28;20033;-78
2021/12/08 04:18:40;;;;;;;3.08;1.70;;;7.00;99.90;;;;;;5013131;28;20095;-79
2021/12/08 04:21:08;;;;;;;3.33;1.98;;;7.00;99.90;;;;;;5031071;28;20462;-79
2021/12/08 04:23:38;;;;;;;5.07;2.10;;;7.00;99.90;;;;;;5012318;28;20108;-79
2021/12/08 04:26:09;;;;;;;5.57;1.83;;;7.00;99.90;;;;;;5013523;28;20018;-79
2021/12/08 04:28:36;;;;;;;3.40;1.70;;;7.10;99.90;;;;;;5015793;28;20483;-79
2021/12/08 04:31:19;;;;;;;4.75;1.92;;;7.10;99.90;;;;;;5017084;28;20040;-79
2021/12/08 04:33:47;;;;;;;6.00;1.75;;;7.10;99.90;;;;;;5017459;28;20091;-80
2021/12/08 04:36:15;;;;;;;3.08;1.75;;;7.10;99.90;;;;;;5016723;28;20033;-79
2021/12/08 04:38:45;;;;;;;4.97;2.10;;;7.10;99.90;;;;;;5016832;28;20032;-79
2021/12/08 04:41:18;;;;;;;5.50;1.85;;;7.10;99.90;;;;;;5017681;28;20128;-79
2021/12/08 04:43:59;;;;;;;3.42;1.90;;;7.10;99.90;;;;;;5016538;28;20021;-79
2021/12/08 04:49:20;;;;;;;3.33;2.03;;;7.10;99.90;;;;;;5034977;28;20376;-79
2021/12/08 05:00:29;;;;;;;7.53;1.92;;;6.90;99.90;;;;;;5035061;28;20040;-79
2021/12/08 05:03:34;;;;;;;3.63;1.55;;;6.90;99.90;;;;;;5017099;28;20473;-79
2021/12/08 05:08:42;;;;;;;;;;;6.70;99.90;;;;;;5034667;28;20517;-79
2021/12/08 05:11:21;;;;;;;6.43;1.80;;;6.60;99.90;;;;;;5016598;28;20000;-79
2021/12/08 05:13:53;;;;;;;4.45;1.83;;;6.50;99.90;;;;;;5034849;28;20025;-79
2021/12/08 05:16:19;;;;;;;4.63;1.73;;;6.50;99.90;;;;;;5034552;28;20021;-79
2021/12/08 05:18:48;;;;;;;4.88;1.77;;;6.40;99.90;;;;;;5015796;28;20527;-79
2021/12/08 05:21:26;;;;;;;5.38;1.60;;;6.40;99.90;;;;;;5033877;28;20021;-78
2021/12/08 05:23:58;;;;;;;3.70;1.80;;;6.40;99.90;;;;;;5016895;28;20040;-80
2021/12/08 05:26:41;;;;;;;3.55;1.50;;;6.30;99.90;;;;;;5016108;28;20425;-81
2021/12/08 05:29:20;;;;;;;4.00;2.20;;;6.30;99.90;;;;;;5013147;28;20048;-80
2021/12/08 05:31:47;;;;;;;5.50;1.73;;;6.30;99.90;;;;;;5034680;28;20029;-80
2021/12/08 05:34:12;;;;;;;4.18;2.22;;;6.40;99.90;;;;;;5011348;28;20649;-80
2021/12/08 05:36:38;;;;;;;2.72;1.60;;;6.50;99.90;;;;;;5016146;28;20474;-81
2021/12/08 05:39:09;;;;;;;3.70;1.58;;;6.60;99.90;;;;;;5015049;28;20049;-80
2021/12/08 05:41:38;;;;;;;3.05;1.50;;;6.60;99.90;;;;;;5014100;28;20060;-80
2021/12/08 05:44:04;;;;;;;3.13;1.58;;;6.70;99.90;;;;;;5016031;28;20026;-80
2021/12/08 05:46:34;;;;;;;4.22;1.90;;;6.70;99.90;;;;;;5015242;28;20087;-81
2021/12/08 05:49:02;;;;;;;4.95;1.80;;;6.70;99.90;;;;;;5015876;28;20021;-79
2021/12/08 05:51:32;;;;;;;5.15;2.03;;;6.60;99.90;;;;;;5031900;28;20485;-79
2021/12/08 05:54:00;;;;;;;5.15;1.85;;;6.60;99.90;;;;;;5015397;28;20029;-80
2021/12/08 05:56:27;;;;;;;6.05;1.92;;;6.60;99.90;;;;;;5015497;28;20025;-79
2021/12/08 05:58:56;;;;;;;4.57;2.15;;;6.50;99.90;;;;;;5033670;28;20551;-79
2021/12/08 06:01:29;;;;;;;4.60;1.90;;;6.40;99.90;;;;;;5015457;28;20033;-79
2021/12/08 06:03:55;;;;;;;4.68;2.10;;;6.40;99.90;;;;;;5033758;28;20021;-79
2021/12/08 06:06:23;;;;;;;2.50;1.70;;;6.30;99.90;;;;;;5003873;28;20482;-79
2021/12/08 06:08:51;;;;;;;6.35;2.15;;;6.30;99.90;;;;;;4995630;28;20026;-79
2021/12/08 06:11:17;;;;;;;2.85;1.65;;;6.20;99.90;;;;;;5014414;28;20064;-78
2021/12/08 06:13:46;;;;;;;7.63;2.03;;;6.10;99.90;;;;;;5006715;28;20030;-79
2021/12/08 06:16:13;;;;;;;4.50;1.92;;;6.10;99.90;;;;;;5023065;28;20025;-78
2021/12/08 06:18:40;;;;;;;3.10;1.63;;;6.10;99.90;;;;;;5015382;28;20477;-80
2021/12/08 06:21:19;;;;;;;3.33;1.45;;;6.10;99.90;;;;;;5015254;28;20024;-80
2021/12/08 06:23:47;;;;;;;4.93;1.90;;;6.10;99.90;;;;;;5015025;28;20033;-79
2021/12/08 06:26:15;;;;;;;8.32;2.40;;;6.10;99.90;;;;;;5014158;28;20026;-79
2021/12/08 06:28:42;;;;;;;4.50;1.90;;;6.00;99.90;;;;;;5014007;28;20496;-80
2021/12/08 06:31:08;;;;;;;3.80;1.60;;;6.00;99.90;;;;;;5015102;28;20056;-80
2021/12/08 06:33:34;;;;;;;4.22;2.03;;;6.00;99.90;;;;;;5032569;28;20144;-81
2021/12/08 06:36:11;;;;;;;2.83;2.05;;;6.00;99.90;;;;;;5014498;28;20119;-81
2021/12/08 06:38:38;;;;;;;3.70;2.05;;;6.00;99.90;;;;;;5014537;28;20024;-86
2021/12/08 06:41:11;;;;;;;5.10;1.60;;;6.00;99.90;;;;;;5011066;28;20511;-78
2021/12/08 06:43:42;;;;;;;4.70;1.95;;;6.00;99.90;;;;;;5023491;28;20470;-79
2021/12/08 06:46:08;;;;;;;5.30;1.98;;;6.00;99.90;;;;;;5012933;28;20421;-80
2021/12/08 06:48:38;;;;;;;3.70;1.90;;;6.00;99.90;;;;;;5018695;28;20025;-81
2021/12/08 06:51:09;;;;;;;8.55;1.90;;;6.00;99.90;;;;;;5012885;28;20095;-80
2021/12/08 06:53:35;;;;;;;8.80;2.55;;;6.10;99.90;;;;;;5001856;28;20022;-81
2021/12/08 06:56:30;;;;;;;7.07;2.00;;;6.10;99.90;;;;;;5005503;28;20116;-79
2021/12/08 06:59:02;;;;;;;5.43;2.03;;;6.10;99.90;;;;;;4984252;28;20053;-79
2021/12/08 07:01:56;;;;;;;2.75;1.58;;;6.10;99.90;;;;;;5014013;28;20036;-79
2021/12/08 07:05:10;;;;;;;5.90;2.13;;;6.10;99.90;;;;;;5011118;28;20120;-80
2021/12/08 07:07:36;;;;;;;8.75;1.85;;;6.00;99.90;;;;;;5013163;28;20028;-82
2021/12/08 07:10:07;;;;;;;7.22;2.30;;;5.90;99.90;;;;;;5009222;28;20038;-80
2021/12/08 07:12:39;;;;;;;3.03;1.65;;;5.90;99.90;;;;;;5025647;28;20087;-82
2021/12/08 07:15:12;;;;;;;8.38;2.33;;;5.90;99.90;;;;;;5031718;28;20493;-77
2021/12/08 07:17:40;;;;;;;8.73;2.60;;;5.90;99.90;;;;;;5012393;28;20041;-82
2021/12/08 07:20:28;;;;;;;6.10;1.92;;;5.80;99.90;;;;;;5030709;28;20100;-80
2021/12/08 07:22:54;;;;;;;5.80;2.30;;;5.80;99.90;;;;;;5014232;28;20036;-77
2021/12/08 07:25:25;;;;;;;6.78;2.08;;;5.70;99.90;;;;;;5012501;28;20029;-81
2021/12/08 07:27:52;;;;;;;4.95;1.85;;;5.70;99.90;;;;;;5014365;28;20121;-77
2021/12/08 07:30:33;;;;;;;7.28;2.20;;;5.70;99.90;;;;;;5007884;28;20123;-86
2021/12/08 07:32:59;;;;;;;8.75;2.20;;;5.60;99.90;;;;;;5013343;28;20108;-81
2021/12/08 07:35:36;;;;;;;9.05;3.40;;;5.60;99.90;;;;;;5013734;28;20567;-79
2021/12/08 07:38:04;;;;;;;6.78;2.08;;;5.60;99.90;;;;;;4994303;28;20080;-82
2021/12/08 07:40:40;;;;;;;7.63;2.15;;;5.60;99.90;;;;;;4961684;28;20072;-81
2021/12/08 07:43:11;;;;;;;6.53;2.10;;;5.60;99.90;;;;;;5012327;28;20108;-81
2021/12/08 07:45:42;;;;;;;7.90;2.55;;;5.60;99.90;;;;;;4995924;28;20072;-84
2021/12/08 16:08:29;;;;;;;7.88;6.97;;;5.70;99.90;;;;;;5916183;23;20049;-83
2021/12/08 16:10:55;;;;;;;7.30;6.43;;;5.70;99.90;;;;;;5005888;28;20485;-78
2021/12/08 16:13:22;;;;;;;6.85;4.40;;;5.60;99.90;;;;;;5008194;28;20026;-82
2021/12/08 16:15:51;;;;;;;5.88;4.20;;;5.50;99.90;;;;;;5009654;28;20501;-83
2021/12/08 16:18:27;;;;;;;7.32;4.18;;;5.50;99.90;;;;;;5007251;28;20033;-80
2021/12/08 16:20:56;;;;;;;5.75;3.83;;;5.50;99.90;;;;;;4998901;28;20628;-78
2021/12/08 16:23:23;;;;;;;4.82;4.30;;;5.50;99.90;;;;;;5002263;28;20141;-77
2021/12/08 16:25:50;;;;;;;5.80;4.50;;;5.40;99.90;;;;;;5007215;28;20481;-81
2021/12/08 16:28:16;;;;;;;10.27;6.90;;;5.40;99.90;;;;;;5006593;28;20061;-78
2021/12/08 16:30:43;;;;;;;19.67;11.25;;;5.40;99.90;;;;;;5006654;28;20116;-85
2021/12/08 16:33:10;;;;;;;28.80;18.85;;;5.40;99.90;;;;;;4990906;28;20048;-82
2021/12/08 16:35:37;;;;;;;31.85;21.05;;;5.30;99.90;;;;;;5006793;28;20026;-80
2021/12/08 16:38:03;;;;;;;32.83;21.35;;;5.30;99.90;;;;;;5006818;28;20112;-80
2021/12/08 16:43:08;;;;;;;29.70;21.77;;;5.30;99.90;;;;;;5008866;28;20187;-82
2021/12/08 16:45:44;;;;;;;23.42;17.40;;;5.30;99.90;;;;;;5004198;28;20033;-79
2021/12/08 16:48:13;;;;;;;16.15;11.70;;;5.20;99.90;;;;;;5007321;28;20026;-82
2021/12/08 16:50:40;;;;;;;11.45;8.25;;;5.20;99.90;;;;;;5006231;28;20050;-79
2021/12/08 16:53:08;;;;;;;7.05;5.88;;;5.20;99.90;;;;;;5005581;28;20018;-81
2021/12/08 16:55:35;;;;;;;8.10;5.28;;;5.10;99.90;;;;;;4990545;28;20026;-79
2021/12/08 16:58:04;;;;;;;8.00;4.22;;;5.10;99.90;;;;;;5004946;28;20114;-82
2021/12/08 17:00:34;;;;;;;6.10;3.60;;;5.10;99.90;;;;;;4995387;28;20022;-83
2021/12/08 17:03:01;;;;;;;5.57;3.75;;;5.00;99.90;;;;;;5004184;28;20021;-80
2021/12/08 17:05:27;;;;;;;5.38;4.00;;;5.00;99.90;;;;;;5006171;28;20030;-80
2021/12/08 17:07:55;;;;;;;7.25;4.65;;;5.00;99.90;;;;;;5005917;28;20567;-81
2021/12/08 17:10:21;;;;;;;4.40;3.58;;;4.90;99.90;;;;;;4987242;28;20078;-80
2021/12/08 17:12:47;;;;;;;6.22;3.85;;;4.90;99.90;;;;;;5007375;28;20045;-80
2021/12/08 17:15:15;;;;;;;4.80;3.40;;;4.90;99.90;;;;;;5004780;28;20076;-79
2021/12/08 17:17:41;;;;;;;5.53;3.60;;;4.90;99.90;;;;;;5002114;28;20113;-77
2021/12/08 17:20:09;;;;;;;6.32;3.55;;;4.80;99.90;;;;;;5005467;28;20477;-82
2021/12/08 17:22:36;;;;;;;4.50;3.10;;;4.80;99.90;;;;;;5003169;28;20030;-81
2021/12/08 17:25:03;;;;;;;4.85;3.72;;;4.80;99.90;;;;;;4980652;28;20037;-81
2021/12/08 17:27:29;;;;;;;6.60;3.88;;;4.70;99.90;;;;;;4986513;28;20099;-83
2021/12/08 17:29:55;;;;;;;6.72;3.58;;;4.80;99.90;;;;;;5003588;28;20117;-81
2021/12/08 17:32:20;;;;;;;5.53;3.67;;;4.70;99.90;;;;;;5006877;28;20064;-81
2021/12/08 17:34:52;;;;;;;7.47;4.00;;;4.70;99.90;;;;;;5005157;28;20022;-85
2021/12/08 17:37:20;;;;;;;6.50;3.22;;;4.60;99.90;;;;;;5014374;28;20470;-85
2021/12/08 17:39:45;;;;;;;4.05;3.10;;;4.60;99.90;;;;;;4996504;28;20022;-88
2021/12/08 17:42:11;;;;;;;7.18;4.03;;;4.60;99.90;;;;;;5012665;28;20060;-87
2021/12/08 17:44:36;;;;;;;5.15;3.67;;;4.50;99.90;;;;;;5012377;28;20030;-85
2021/12/08 17:47:03;;;;;;;5.35;4.10;;;4.50;99.90;;;;;;5005455;28;20042;-80
2021/12/08 17:49:29;;;;;;;5.50;3.72;;;4.50;99.90;;;;;;5006358;28;20034;-82
2021/12/08 17:51:55;;;;;;;6.55;4.13;;;4.50;99.90;;;;;;4974492;28;20125;-81
2021/12/08 17:54:21;;;;;;;6.57;4.70;;;4.40;99.90;;;;;;4976364;28;20121;-87
2021/12/08 17:56:47;;;;;;;14.82;7.80;;;4.40;99.90;;;;;;5000235;28;20076;-83
2021/12/08 17:59:15;;;;;;;36.40;18.08;;;4.30;99.90;;;;;;4995128;28;20034;-80
2021/12/08 18:01:43;;;;;;;59.40;28.95;;;4.30;99.90;;;;;;5008639;28;20386;-77
2021/12/08 18:04:10;;;;;;;73.70;36.92;;;4.30;99.90;;;;;;5009532;28;20025;-80
2021/12/08 18:06:39;;;;;;;67.80;42.97;;;4.30;99.90;;;;;;5008891;28;20128;-79
2021/12/08 18:09:07;;;;;;;56.05;39.30;;;4.30;99.90;;;;;;5009012;28;20049;-79
2021/12/08 18:11:33;;;;;;;40.53;29.00;;;4.20;99.90;;;;;;5009303;28;20524;-79
2021/12/08 18:13:58;;;;;;;21.88;16.95;;;4.20;99.90;;;;;;5009409;28;20029;-79
2021/12/08 18:16:26;;;;;;;16.38;11.95;;;4.20;99.90;;;;;;5008487;28;20034;-81
2021/12/08 18:18:53;;;;;;;13.18;9.23;;;4.20;99.90;;;;;;5009356;28;20022;-80
2021/12/08 18:21:20;;;;;;;8.63;6.63;;;4.20;99.90;;;;;;5025504;28;20069;-82
2021/12/08 18:23:45;;;;;;;7.03;5.68;;;4.20;99.90;;;;;;5024696;28;20091;-81
2021/12/08 18:26:11;;;;;;;7.97;5.38;;;4.20;99.90;;;;;;5019246;28;20473;-81
2021/12/08 18:28:37;;;;;;;9.15;5.15;;;4.20;99.90;;;;;;5008261;28;20070;-78
2021/12/08 18:31:04;;;;;;;6.35;4.72;;;4.30;99.90;;;;;;5007875;28;20069;-77
2021/12/08 18:33:30;;;;;;;5.50;4.05;;;4.20;99.90;;;;;;5009260;28;20264;-79
2021/12/08 18:38:34;;;;;;;5.53;3.78;;;4.20;99.90;;;;;;5000714;28;20037;-79
2021/12/08 18:41:07;;;;;;;4.97;3.38;;;4.20;99.90;;;;;;5004764;28;20026;-78
2021/12/08 18:43:35;;;;;;;5.53;3.40;;;4.20;99.90;;;;;;5008285;28;20042;-78
2021/12/08 18:46:02;;;;;;;6.68;3.13;;;4.20;99.90;;;;;;5008039;28;20034;-79
2021/12/08 18:48:30;;;;;;;6.75;3.38;;;4.20;99.90;;;;;;5006688;28;20046;-80
2021/12/08 18:50:55;;;;;;;5.60;3.95;;;4.20;99.90;;;;;;5006594;28;20041;-79
2021/12/08 18:53:21;;;;;;;7.60;3.70;;;4.20;99.90;;;;;;5007202;28;20631;-79
2021/12/08 18:55:47;;;;;;;7.72;4.10;;;4.10;99.90;;;;;;5007399;28;20525;-79
2021/12/08 18:58:14;;;;;;;6.43;3.85;;;4.10;99.90;;;;;;5007582;28;20076;-78
2021/12/08 19:00:40;;;;;;;5.25;3.72;;;4.10;99.90;;;;;;5007937;28;20482;-77
2021/12/08 19:03:06;;;;;;;6.10;4.28;;;4.10;99.90;;;;;;5008330;28;20041;-77
2021/12/08 19:05:33;;;;;;;11.02;5.75;;;4.10;99.90;;;;;;5003525;28;20061;-77
2021/12/08 19:08:01;;;;;;;11.13;6.53;;;4.10;99.90;;;;;;5007947;28;20034;-77
2021/12/08 19:10:29;;;;;;;11.82;6.55;;;4.10;99.90;;;;;;5023522;28;20671;-75
2021/12/08 19:12:55;;;;;;;11.30;6.80;;;4.10;99.90;;;;;;5010524;28;20037;-75
2021/12/08 19:15:24;;;;;;;9.55;6.10;;;4.10;99.90;;;;;;5010589;28;20122;-76
2021/12/08 19:17:50;;;;;;;13.52;8.38;;;4.10;99.90;;;;;;5005912;28;20378;-76
2021/12/08 19:20:18;;;;;;;17.25;10.50;;;4.10;99.90;;;;;;5025091;28;20037;-77
2021/12/08 19:22:45;;;;;;;14.68;10.77;;;4.10;99.90;;;;;;5011117;28;20232;-77
2021/12/08 19:25:12;;;;;;;15.68;10.57;;;4.00;99.90;;;;;;5011257;28;20025;-77
2021/12/08 19:27:39;;;;;;;15.20;9.00;;;4.00;99.90;;;;;;5009239;28;20065;-77
2021/12/08 19:30:06;;;;;;;14.45;9.52;;;4.00;99.90;;;;;;5028249;28;20060;-77
2021/12/08 19:32:34;;;;;;;12.93;9.63;;;4.00;99.90;;;;;;5019203;28;20053;-77
2021/12/08 19:35:00;;;;;;;16.38;10.18;;;4.00;99.90;;;;;;5027100;28;20040;-76
2021/12/08 19:37:26;;;;;;;18.23;11.68;;;4.00;99.90;;;;;;5020334;28;20025;-78
2021/12/08 19:39:54;;;;;;;16.98;11.43;;;4.00;99.90;;;;;;5010080;28;20029;-77
2021/12/08 19:42:21;;;;;;;14.25;8.77;;;4.00;99.90;;;;;;5010604;28;20129;-78
2021/12/08 19:44:52;;;;;;;11.45;7.95;;;4.00;99.90;;;;;;4992639;28;20485;-78
2021/12/08 19:47:21;;;;;;;12.55;8.57;;;4.00;99.90;;;;;;4990217;28;20030;-77
2021/12/08 19:49:47;;;;;;;12.10;9.07;;;3.90;99.90;;;;;;5002673;28;20604;-77
2021/12/08 19:52:13;;;;;;;10.98;8.52;;;4.00;99.90;;;;;;5010058;28;20088;-78
2021/12/08 19:54:40;;;;;;;9.38;6.93;;;4.00;99.90;;;;;;5003737;28;20018;-76
2021/12/08 19:57:06;;;;;;;10.63;6.20;;;4.00;99.90;;;;;;5025366;28;20017;-85
2021/12/08 19:59:31;;;;;;;8.30;5.25;;;4.00;99.90;;;;;;5003524;28;20028;-76
2021/12/08 20:01:59;;;;;;;6.35;4.43;;;4.00;99.90;;;;;;5022761;28;20671;-75
2021/12/08 20:04:27;;;;;;;6.47;4.28;;;4.00;99.90;;;;;;5023149;28;20536;-74
2021/12/08 20:06:54;;;;;;;8.38;4.30;;;4.00;99.90;;;;;;5008020;28;20033;-77
2021/12/08 20:09:19;;;;;;;5.43;4.32;;;4.00;99.90;;;;;;5021092;28;20140;-79
2021/12/08 20:11:47;;;;;;;5.97;4.47;;;4.00;99.90;;;;;;5024458;28;20549;-78
2021/12/08 20:14:15;;;;;;;7.85;4.25;;;4.00;99.90;;;;;;5005941;28;20057;-77
2021/12/08 20:16:41;;;;;;;6.13;4.45;;;4.00;99.90;;;;;;5011454;28;20025;-80
2021/12/08 20:19:11;;;;;;;8.57;5.10;;;4.00;99.90;;;;;;5012954;28;20432;-79
2021/12/08 20:21:38;;;;;;;7.60;5.97;;;4.00;99.90;;;;;;5012681;28;20115;-78
2021/12/08 20:24:04;;;;;;;6.70;5.30;;;4.00;99.90;;;;;;5012587;28;20080;-78
2021/12/08 20:26:30;;;;;;;7.72;5.28;;;4.00;99.90;;;;;;5008338;28;20029;-78
2021/12/08 20:28:55;;;;;;;7.07;4.63;;;4.00;99.90;;;;;;5030292;28;20021;-79
2021/12/08 20:31:25;;;;;;;7.85;4.35;;;4.00;99.90;;;;;;5012581;28;20049;-78
2021/12/08 20:33:52;;;;;;;6.13;3.92;;;4.10;99.90;;;;;;5030005;28;20025;-79
2021/12/08 20:37:06;;;;;;;10.10;6.03;;;4.10;99.90;;;;;;5010567;28;20426;-80
2021/12/08 20:39:44;;;;;;;6.93;4.38;;;4.10;99.90;;;;;;5028345;28;20099;-80
2021/12/08 20:42:09;;;;;;;5.70;4.07;;;4.10;99.90;;;;;;5013154;28;20036;-77
2021/12/08 20:44:35;;;;;;;6.07;4.22;;;4.00;99.90;;;;;;5010619;28;20021;-77
2021/12/08 20:47:02;;;;;;;7.18;4.38;;;4.00;99.90;;;;;;5013131;28;20029;-78
2021/12/08 20:49:27;;;;;;;12.10;4.95;;;4.00;99.90;;;;;;5007261;28;20541;-79
2021/12/08 20:51:57;;;;;;;11.00;5.93;;;4.00;99.90;;;;;;5012600;28;20129;-79
2021/12/08 20:54:23;;;;;;;10.68;6.07;;;3.80;99.90;;;;;;5012861;28;20026;-77
2021/12/08 20:56:52;;;;;;;9.52;5.90;;;3.70;99.90;;;;;;5029454;28;20531;-78
2021/12/08 20:59:18;;;;;;;7.15;5.38;;;3.70;99.90;;;;;;5010880;28;20472;-78
2021/12/08 21:01:55;;;;;;;6.13;4.28;;;3.70;99.90;;;;;;5007347;28;20473;-79
2021/12/08 21:04:23;;;;;;;8.32;4.68;;;3.80;99.90;;;;;;5010933;28;20635;-81
2021/12/08 21:06:53;;;;;;;9.00;5.20;;;3.80;99.90;;;;;;5027108;28;20040;-83
2021/12/08 21:09:19;;;;;;;6.07;4.00;;;3.80;99.90;;;;;;5029459;28;20046;-86
2021/12/08 21:11:48;;;;;;;5.90;4.32;;;3.80;99.90;;;;;;4997960;28;20462;-81
2021/12/08 21:14:17;;;;;;;7.63;4.88;;;3.80;99.90;;;;;;5013991;28;20044;-84
2021/12/08 21:16:44;;;;;;;7.30;5.50;;;3.80;99.90;;;;;;5030242;28;20030;-81
2021/12/08 21:19:10;;;;;;;9.88;5.30;;;3.70;99.90;;;;;;5030658;28;20057;-82
2021/12/08 21:21:36;;;;;;;9.80;6.57;;;3.70;99.90;;;;;;5012339;28;20120;-82
2021/12/08 21:24:02;;;;;;;9.43;6.10;;;3.70;99.90;;;;;;5013701;28;20125;-81
2021/12/08 21:26:29;;;;;;;9.90;6.00;;;3.70;99.90;;;;;;5011382;28;20482;-81
2021/12/08 21:33:02;;;;;;;8.75;5.20;;;3.70;99.90;;;;;;4992566;28;20064;-84
2021/12/08 21:35:47;;;;;;;7.65;5.70;;;3.60;99.90;;;;;;5010289;28;20048;-79
2021/12/08 21:38:23;;;;;;;9.77;6.25;;;3.60;99.90;;;;;;5012748;28;20029;-81
2021/12/08 21:40:54;;;;;;;11.60;7.45;;;3.60;99.90;;;;;;5009587;28;20037;-78
2021/12/08 21:43:21;;;;;;;24.35;14.50;;;3.50;99.90;;;;;;5008568;28;20026;-80
2021/12/08 21:45:47;;;;;;;62.33;31.77;;;3.50;99.90;;;;;;5007191;28;20492;-77
2021/12/08 21:48:13;;;;;;;102.47;48.60;;;3.50;99.90;;;;;;5015243;28;20025;-79
2021/12/08 21:50:38;;;;;;;172.35;81.43;;;3.60;99.90;;;;;;5014831;28;20029;-78
2021/12/08 21:53:04;;;;;;;200.57;90.97;;;3.50;99.90;;;;;;5015990;28;20132;-78
2021/12/08 21:55:30;;;;;;;181.77;85.10;;;3.50;99.90;;;;;;5032939;28;20040;-79
2021/12/08 21:57:55;;;;;;;140.15;68.88;;;3.50;99.90;;;;;;5016347;28;20017;-78
2021/12/08 22:00:26;;;;;;;113.25;56.60;;;3.50;99.90;;;;;;5015848;28;20037;-79
2021/12/08 22:02:53;;;;;;;82.43;42.38;;;3.50;99.90;;;;;;5015194;28;20026;-77
2021/12/08 22:05:19;;;;;;;58.90;28.48;;;3.50;99.90;;;;;;5010833;28;20021;-78
2021/12/08 22:07:45;;;;;;;36.90;20.92;;;3.50;99.90;;;;;;5014823;28;20080;-79